Jacques Jacob — ZDKG7 — position and weather

sailwx.info

Track history (hours):
 
Tides and Currents Weather Stations Pressure Air Temp Water Temp Dewpoint Dewpoint Depression Visibility Wind Speed Wind Dir Waves Ship Positions

Jacques Jacob

Last reported at 2016-Aug-25 22:30 UTC. Time now 2016-Aug-26 10:13 UTC.
Position N 35°55' E 015°19'.

Length 228 m; draft 13.4 m.

Type: Tanker. MMSI: 236612000.

Date/timePositionNaut miles runAvg speedWind from/ knotsBaromVisibWave heightAir tempDewpointWater temp
2016-Aug-25 22:30N 35°55' E 015°19'1512.7
2016-Aug-25 21:18N 35°59' E 015°01'5 0.2
2016-Aug-24 13:33N 36°01' E 014°56'7 1.3
2016-Aug-24 08:04N 36°07' E 014°53'4 4.6
2016-Aug-24 07:12N 36°03' E 014°53'3 0.2
2016-Aug-23 15:33N 36°01' E 014°50'1 0.4
2016-Aug-23 13:33N 36°01' E 014°50'5 5.0
2016-Aug-23 12:33N 36°01' E 014°44'5 5.0
2016-Aug-23 11:33N 36°01' E 014°38'5 4.8
2016-Aug-23 10:33N 36°01' E 014°32'2 2.2
2016-Aug-23 09:33N 36°00' E 014°30'2 1.6
2016-Aug-23 08:33N 35°60' E 014°31'2 2.2
2016-Aug-23 07:33N 35°58' E 014°33'2 1.8
2016-Aug-23 06:33N 35°57' E 014°35'2 2.5
2016-Aug-23 05:33N 35°57' E 014°38'1010.3
2016-Aug-23 04:33N 35°57' E 014°50'3 0.3
2016-Aug-22 17:24N 35°57' E 014°54'0 0.0
2016-Aug-22 16:33N 35°57' E 014°54'0 0.0
2016-Aug-22 15:33N 35°57' E 014°54'0 0.0
2016-Aug-22 14:33N 35°57' E 014°54'0 0.0
2016-Aug-22 13:33N 35°57' E 014°54'0 0.0
2016-Aug-22 12:33N 35°57' E 014°54'0 0.1
2016-Aug-22 11:33N 35°57' E 014°54'0 0.0
2016-Aug-22 10:33N 35°57' E 014°54'0 0.0
2016-Aug-22 09:30N 35°57' E 014°54'0 0.0
2016-Aug-22 08:33N 35°57' E 014°54'0 0.0
2016-Aug-22 07:33N 35°57' E 014°54'0 0.0
2016-Aug-22 06:33N 35°57' E 014°54'0 0.0
2016-Aug-22 05:33N 35°57' E 014°54'0 0.0
2016-Aug-22 03:30N 35°57' E 014°54'0 0.0
2016-Aug-22 02:27N 35°57' E 014°54'0 0.0
2016-Aug-22 01:30N 35°57' E 014°54'0 0.0
2016-Aug-22 00:33N 35°57' E 014°54'0 0.0
2016-Aug-21 23:33N 35°57' E 014°54'0 0.0
2016-Aug-21 22:33N 35°57' E 014°54'0 0.0
2016-Aug-21 21:33N 35°57' E 014°54'0 0.0
2016-Aug-21 20:32N 35°57' E 014°54'0 0.1
2016-Aug-21 19:32N 35°57' E 014°54'0 0.1
2016-Aug-21 18:32N 35°57' E 014°54'0 0.1
2016-Aug-21 17:32N 35°57' E 014°54'0 0.0
2016-Aug-21 16:32N 35°57' E 014°54'0 0.0
2016-Aug-21 15:32N 35°57' E 014°54'2 1.6
2016-Aug-21 14:33N 35°57' E 014°56'8 8.1
2016-Aug-21 13:33N 35°57' E 015°06'1212.1
2016-Aug-21 12:33N 35°57' E 015°21'1312.5
2016-Aug-21 11:33N 35°56' E 015°36'1212.4
2016-Aug-21 10:33N 35°56' E 015°51'1212.3
2016-Aug-21 09:33N 35°55' E 016°06'1212.1
2016-Aug-21 08:33N 35°55' E 016°21'1211.7
2016-Aug-21 07:33N 35°55' E 016°36'1211.9
2016-Aug-21 06:33N 35°54' E 016°50'2412.0
2016-Aug-21 04:33N 35°54' E 017°20'1212.2
2016-Aug-21 03:33N 35°53' E 017°35'1212.3
2016-Aug-21 02:32N 35°53' E 017°51'1412.2
2016-Aug-21 01:24N 35°52' E 018°08'2412.0
2016-Aug-20 23:26N 35°51' E 018°37'23212.3
2016-Aug-20 04:32N 35°44' E 023°23'1111.7
2016-Aug-20 03:33N 35°53' E 023°30'1313.0
2016-Aug-20 02:33N 36°05' E 023°37'1313.0
2016-Aug-20 01:33N 36°18' E 023°42'1313.2
2016-Aug-20 00:33N 36°31' E 023°43'1312.8
2016-Aug-19 23:33N 36°43' E 023°42'1313.3
2016-Aug-19 22:33N 36°57' E 023°42'1312.8
2016-Aug-19 21:33N 37°09' E 023°43'1212.4
2016-Aug-19 20:33N 37°22' E 023°43'1212.2
2016-Aug-19 19:33N 37°34' E 023°44'1212.0
2016-Aug-19 18:33N 37°46' E 023°38'9 8.6
2016-Aug-19 17:31N 37°53' E 023°32'0 0.2
2016-Aug-19 16:28N 37°53' E 023°32'0 0.0
2016-Aug-19 15:31N 37°53' E 023°32'0 0.1
2016-Aug-19 14:31N 37°53' E 023°32'0 0.1
2016-Aug-19 13:31N 37°53' E 023°32'0 0.0
2016-Aug-19 12:31N 37°53' E 023°32'0 0.0
2016-Aug-19 11:31N 37°53' E 023°32'0 0.0
2016-Aug-19 10:31N 37°53' E 023°32'0 0.0
2016-Aug-19 09:31N 37°53' E 023°32'0 0.0
2016-Aug-19 08:31N 37°52' E 023°32'0 0.0
2016-Aug-19 07:31N 37°52' E 023°32'0 0.0
2016-Aug-19 06:31N 37°52' E 023°32'0 0.1
2016-Aug-19 05:31N 37°52' E 023°32'0 0.0
2016-Aug-19 04:31N 37°52' E 023°32'0 0.0
2016-Aug-19 03:31N 37°52' E 023°32'0 0.0
2016-Aug-19 02:31N 37°52' E 023°32'0 0.0
2016-Aug-19 01:31N 37°52' E 023°32'0 0.1
2016-Aug-19 00:31N 37°52' E 023°32'0 0.0
2016-Aug-18 23:31N 37°52' E 023°32'0 0.1
2016-Aug-18 22:31N 37°52' E 023°32'0 0.1
2016-Aug-18 21:31N 37°52' E 023°32'0 0.0
2016-Aug-18 20:31N 37°52' E 023°32'0 0.1
2016-Aug-18 19:31N 37°53' E 023°32'0 0.0
2016-Aug-18 18:31N 37°53' E 023°32'0 0.1
2016-Aug-18 17:31N 37°53' E 023°32'0 0.0
2016-Aug-18 16:31N 37°53' E 023°32'0 0.0
2016-Aug-18 15:31N 37°53' E 023°32'0 0.1
2016-Aug-18 14:31N 37°53' E 023°32'0 0.0
2016-Aug-18 13:34N 37°53' E 023°32'0 0.2
2016-Aug-18 12:33N 37°52' E 023°32'0 0.0
2016-Aug-18 11:33N 37°52' E 023°32'0 0.0
2016-Aug-18 10:33N 37°52' E 023°32'0 0.0
2016-Aug-18 09:33N 37°53' E 023°32'0 0.0
2016-Aug-18 06:33N 37°52' E 023°32'0 0.1
2016-Aug-18 05:33N 37°52' E 023°32'0 0.0
2016-Aug-18 04:33N 37°52' E 023°32'0 0.0
2016-Aug-18 03:33N 37°52' E 023°32'0 0.0
2016-Aug-18 02:33N 37°52' E 023°32'0 0.1
2016-Aug-18 01:33N 37°52' E 023°32'0 0.1
2016-Aug-18 00:33N 37°52' E 023°32'0 0.1
2016-Aug-17 23:33N 37°52' E 023°32'0 0.0
2016-Aug-17 22:33N 37°52' E 023°32'0 0.1
2016-Aug-17 21:33N 37°52' E 023°31'0 0.1
2016-Aug-17 20:33N 37°53' E 023°32'0 0.1
2016-Aug-17 19:33N 37°53' E 023°32'0 0.0
2016-Aug-17 18:33N 37°53' E 023°32'0 0.1
2016-Aug-17 17:33N 37°53' E 023°32'0 0.0
2016-Aug-17 16:33N 37°53' E 023°32'0 0.0
2016-Aug-17 15:33N 37°53' E 023°32'0 0.0
2016-Aug-17 14:33N 37°53' E 023°32'0 0.1
2016-Aug-17 13:33N 37°53' E 023°32'0 0.1
2016-Aug-17 12:33N 37°52' E 023°32'0 0.0
2016-Aug-17 11:33N 37°52' E 023°32'0 0.0
2016-Aug-17 10:33N 37°52' E 023°32'0 0.0
2016-Aug-17 09:33N 37°52' E 023°32'0 0.0
2016-Aug-17 08:33N 37°53' E 023°32'0 0.0
2016-Aug-17 07:33N 37°52' E 023°32'0 0.2
2016-Aug-17 06:33N 37°52' E 023°32'0 0.1
2016-Aug-17 05:33N 37°52' E 023°32'0 0.1
2016-Aug-17 04:30N 37°52' E 023°32'0 0.1
2016-Aug-17 03:33N 37°52' E 023°32'0 0.0
2016-Aug-17 02:33N 37°52' E 023°32'0 0.0
2016-Aug-17 01:32N 37°52' E 023°32'0 0.1
2016-Aug-17 00:32N 37°52' E 023°32'0 0.1
2016-Aug-16 23:32N 37°52' E 023°32'0 0.1
2016-Aug-16 22:32N 37°52' E 023°32'0 0.0
2016-Aug-16 21:32N 37°52' E 023°32'0 0.1
2016-Aug-16 20:32N 37°52' E 023°32'0 0.0
2016-Aug-16 19:32N 37°52' E 023°32'0 0.1
2016-Aug-16 18:32N 37°52' E 023°32'0 0.0
2016-Aug-16 17:32N 37°52' E 023°32'0 0.0
2016-Aug-16 16:32N 37°52' E 023°32'0 0.0
2016-Aug-16 15:32N 37°52' E 023°32'0 0.0
2016-Aug-16 14:32N 37°52' E 023°32'0 0.0
2016-Aug-16 13:32N 37°52' E 023°32'0 0.0
2016-Aug-16 12:32N 37°52' E 023°32'0 0.0
2016-Aug-16 11:32N 37°52' E 023°32'0 0.0
2016-Aug-16 10:32N 37°52' E 023°32'0 0.0
2016-Aug-16 09:32N 37°52' E 023°32'0 0.0
2016-Aug-16 08:32N 37°52' E 023°32'0 0.0
2016-Aug-16 07:32N 37°52' E 023°32'0 0.0
2016-Aug-16 06:32N 37°52' E 023°32'0 0.0
2016-Aug-16 04:32N 37°52' E 023°32'0 0.0
2016-Aug-16 03:32N 37°52' E 023°32'0 0.0
2016-Aug-16 02:32N 37°52' E 023°32'0 0.0
2016-Aug-16 01:32N 37°52' E 023°32'0 0.0
2016-Aug-16 00:32N 37°52' E 023°32'0 0.0
2016-Aug-15 23:32N 37°52' E 023°32'0 0.0
2016-Aug-15 22:32N 37°52' E 023°32'  
Track history (hours):
 
Tides and Currents Weather Stations Pressure Air Temp Water Temp Dewpoint Dewpoint Depression Visibility Wind Speed Wind Dir Waves Ship Positions

Jacques Jacob

Last reported at 2016-Aug-25 22:30 UTC. Time now 2016-Aug-26 10:13 UTC.
Position N 35°55' E 015°19'.

Length 228 m; draft 13.4 m.

Type: Tanker. MMSI: 236612000.

Date/timePositionNaut miles runAvg speedWind from/ knotsBaromVisibWave heightAir tempDewpointWater temp
2016-Aug-25 22:30N 35°55' E 015°19'1512.7
2016-Aug-25 21:18N 35°59' E 015°01'5 0.2
2016-Aug-24 13:33N 36°01' E 014°56'7 1.3
2016-Aug-24 08:04N 36°07' E 014°53'4 4.6
2016-Aug-24 07:12N 36°03' E 014°53'3 0.2
2016-Aug-23 15:33N 36°01' E 014°50'1 0.4
2016-Aug-23 13:33N 36°01' E 014°50'5 5.0
2016-Aug-23 12:33N 36°01' E 014°44'5 5.0
2016-Aug-23 11:33N 36°01' E 014°38'5 4.8
2016-Aug-23 10:33N 36°01' E 014°32'2 2.2
2016-Aug-23 09:33N 36°00' E 014°30'2 1.6
2016-Aug-23 08:33N 35°60' E 014°31'2 2.2
2016-Aug-23 07:33N 35°58' E 014°33'2 1.8
2016-Aug-23 06:33N 35°57' E 014°35'2 2.5
2016-Aug-23 05:33N 35°57' E 014°38'1010.3
2016-Aug-23 04:33N 35°57' E 014°50'3 0.3
2016-Aug-22 17:24N 35°57' E 014°54'0 0.0
2016-Aug-22 16:33N 35°57' E 014°54'0 0.0
2016-Aug-22 15:33N 35°57' E 014°54'0 0.0
2016-Aug-22 14:33N 35°57' E 014°54'0 0.0
2016-Aug-22 13:33N 35°57' E 014°54'0 0.0
2016-Aug-22 12:33N 35°57' E 014°54'0 0.1
2016-Aug-22 11:33N 35°57' E 014°54'0 0.0
2016-Aug-22 10:33N 35°57' E 014°54'0 0.0
2016-Aug-22 09:30N 35°57' E 014°54'0 0.0
2016-Aug-22 08:33N 35°57' E 014°54'0 0.0
2016-Aug-22 07:33N 35°57' E 014°54'0 0.0
2016-Aug-22 06:33N 35°57' E 014°54'0 0.0
2016-Aug-22 05:33N 35°57' E 014°54'0 0.0
2016-Aug-22 03:30N 35°57' E 014°54'0 0.0
2016-Aug-22 02:27N 35°57' E 014°54'0 0.0
2016-Aug-22 01:30N 35°57' E 014°54'0 0.0
2016-Aug-22 00:33N 35°57' E 014°54'0 0.0
2016-Aug-21 23:33N 35°57' E 014°54'0 0.0
2016-Aug-21 22:33N 35°57' E 014°54'0 0.0
2016-Aug-21 21:33N 35°57' E 014°54'0 0.0
2016-Aug-21 20:32N 35°57' E 014°54'0 0.1
2016-Aug-21 19:32N 35°57' E 014°54'0 0.1
2016-Aug-21 18:32N 35°57' E 014°54'0 0.1
2016-Aug-21 17:32N 35°57' E 014°54'0 0.0
2016-Aug-21 16:32N 35°57' E 014°54'0 0.0
2016-Aug-21 15:32N 35°57' E 014°54'2 1.6
2016-Aug-21 14:33N 35°57' E 014°56'8 8.1
2016-Aug-21 13:33N 35°57' E 015°06'1212.1
2016-Aug-21 12:33N 35°57' E 015°21'1312.5
2016-Aug-21 11:33N 35°56' E 015°36'1212.4
2016-Aug-21 10:33N 35°56' E 015°51'1212.3
2016-Aug-21 09:33N 35°55' E 016°06'1212.1
2016-Aug-21 08:33N 35°55' E 016°21'1211.7
2016-Aug-21 07:33N 35°55' E 016°36'1211.9
2016-Aug-21 06:33N 35°54' E 016°50'2412.0
2016-Aug-21 04:33N 35°54' E 017°20'1212.2
2016-Aug-21 03:33N 35°53' E 017°35'1212.3
2016-Aug-21 02:32N 35°53' E 017°51'1412.2
2016-Aug-21 01:24N 35°52' E 018°08'2412.0
2016-Aug-20 23:26N 35°51' E 018°37'23212.3
2016-Aug-20 04:32N 35°44' E 023°23'1111.7
2016-Aug-20 03:33N 35°53' E 023°30'1313.0
2016-Aug-20 02:33N 36°05' E 023°37'1313.0
2016-Aug-20 01:33N 36°18' E 023°42'1313.2
2016-Aug-20 00:33N 36°31' E 023°43'1312.8
2016-Aug-19 23:33N 36°43' E 023°42'1313.3
2016-Aug-19 22:33N 36°57' E 023°42'1312.8
2016-Aug-19 21:33N 37°09' E 023°43'1212.4
2016-Aug-19 20:33N 37°22' E 023°43'1212.2
2016-Aug-19 19:33N 37°34' E 023°44'1212.0
2016-Aug-19 18:33N 37°46' E 023°38'9 8.6
2016-Aug-19 17:31N 37°53' E 023°32'0 0.2
2016-Aug-19 16:28N 37°53' E 023°32'0 0.0
2016-Aug-19 15:31N 37°53' E 023°32'0 0.1
2016-Aug-19 14:31N 37°53' E 023°32'0 0.1
2016-Aug-19 13:31N 37°53' E 023°32'0 0.0
2016-Aug-19 12:31N 37°53' E 023°32'0 0.0
2016-Aug-19 11:31N 37°53' E 023°32'0 0.0
2016-Aug-19 10:31N 37°53' E 023°32'0 0.0
2016-Aug-19 09:31N 37°53' E 023°32'0 0.0
2016-Aug-19 08:31N 37°52' E 023°32'0 0.0
2016-Aug-19 07:31N 37°52' E 023°32'0 0.0
2016-Aug-19 06:31N 37°52' E 023°32'0 0.1
2016-Aug-19 05:31N 37°52' E 023°32'0 0.0
2016-Aug-19 04:31N 37°52' E 023°32'0 0.0
2016-Aug-19 03:31N 37°52' E 023°32'0 0.0
2016-Aug-19 02:31N 37°52' E 023°32'0 0.0
2016-Aug-19 01:31N 37°52' E 023°32'0 0.1
2016-Aug-19 00:31N 37°52' E 023°32'0 0.0
2016-Aug-18 23:31N 37°52' E 023°32'0 0.1
2016-Aug-18 22:31N 37°52' E 023°32'0 0.1
2016-Aug-18 21:31N 37°52' E 023°32'0 0.0
2016-Aug-18 20:31N 37°52' E 023°32'0 0.1
2016-Aug-18 19:31N 37°53' E 023°32'0 0.0
2016-Aug-18 18:31N 37°53' E 023°32'0 0.1
2016-Aug-18 17:31N 37°53' E 023°32'0 0.0
2016-Aug-18 16:31N 37°53' E 023°32'0 0.0
2016-Aug-18 15:31N 37°53' E 023°32'0 0.1
2016-Aug-18 14:31N 37°53' E 023°32'0 0.0
2016-Aug-18 13:34N 37°53' E 023°32'0 0.2
2016-Aug-18 12:33N 37°52' E 023°32'0 0.0
2016-Aug-18 11:33N 37°52' E 023°32'0 0.0
2016-Aug-18 10:33N 37°52' E 023°32'0 0.0
2016-Aug-18 09:33N 37°53' E 023°32'0 0.0
2016-Aug-18 06:33N 37°52' E 023°32'0 0.1
2016-Aug-18 05:33N 37°52' E 023°32'0 0.0
2016-Aug-18 04:33N 37°52' E 023°32'0 0.0
2016-Aug-18 03:33N 37°52' E 023°32'0 0.0
2016-Aug-18 02:33N 37°52' E 023°32'0 0.1
2016-Aug-18 01:33N 37°52' E 023°32'0 0.1
2016-Aug-18 00:33N 37°52' E 023°32'0 0.1
2016-Aug-17 23:33N 37°52' E 023°32'0 0.0
2016-Aug-17 22:33N 37°52' E 023°32'0 0.1
2016-Aug-17 21:33N 37°52' E 023°31'0 0.1
2016-Aug-17 20:33N 37°53' E 023°32'0 0.1
2016-Aug-17 19:33N 37°53' E 023°32'0 0.0
2016-Aug-17 18:33N 37°53' E 023°32'0 0.1
2016-Aug-17 17:33N 37°53' E 023°32'0 0.0
2016-Aug-17 16:33N 37°53' E 023°32'0 0.0
2016-Aug-17 15:33N 37°53' E 023°32'0 0.0
2016-Aug-17 14:33N 37°53' E 023°32'0 0.1
2016-Aug-17 13:33N 37°53' E 023°32'0 0.1
2016-Aug-17 12:33N 37°52' E 023°32'0 0.0
2016-Aug-17 11:33N 37°52' E 023°32'0 0.0
2016-Aug-17 10:33N 37°52' E 023°32'0 0.0
2016-Aug-17 09:33N 37°52' E 023°32'0 0.0
2016-Aug-17 08:33N 37°53' E 023°32'0 0.0
2016-Aug-17 07:33N 37°52' E 023°32'0 0.2
2016-Aug-17 06:33N 37°52' E 023°32'0 0.1
2016-Aug-17 05:33N 37°52' E 023°32'0 0.1
2016-Aug-17 04:30N 37°52' E 023°32'0 0.1
2016-Aug-17 03:33N 37°52' E 023°32'0 0.0
2016-Aug-17 02:33N 37°52' E 023°32'0 0.0
2016-Aug-17 01:32N 37°52' E 023°32'0 0.1
2016-Aug-17 00:32N 37°52' E 023°32'0 0.1
2016-Aug-16 23:32N 37°52' E 023°32'0 0.1
2016-Aug-16 22:32N 37°52' E 023°32'0 0.0
2016-Aug-16 21:32N 37°52' E 023°32'0 0.1
2016-Aug-16 20:32N 37°52' E 023°32'0 0.0
2016-Aug-16 19:32N 37°52' E 023°32'0 0.1
2016-Aug-16 18:32N 37°52' E 023°32'0 0.0
2016-Aug-16 17:32N 37°52' E 023°32'0 0.0
2016-Aug-16 16:32N 37°52' E 023°32'0 0.0
2016-Aug-16 15:32N 37°52' E 023°32'0 0.0
2016-Aug-16 14:32N 37°52' E 023°32'0 0.0
2016-Aug-16 13:32N 37°52' E 023°32'0 0.0
2016-Aug-16 12:32N 37°52' E 023°32'0 0.0
2016-Aug-16 11:32N 37°52' E 023°32'0 0.0
2016-Aug-16 10:32N 37°52' E 023°32'0 0.0
2016-Aug-16 09:32N 37°52' E 023°32'0 0.0
2016-Aug-16 08:32N 37°52' E 023°32'0 0.0
2016-Aug-16 07:32N 37°52' E 023°32'0 0.0
2016-Aug-16 06:32N 37°52' E 023°32'0 0.0
2016-Aug-16 04:32N 37°52' E 023°32'0 0.0
2016-Aug-16 03:32N 37°52' E 023°32'0 0.0
2016-Aug-16 02:32N 37°52' E 023°32'0 0.0
2016-Aug-16 01:32N 37°52' E 023°32'0 0.0
2016-Aug-16 00:32N 37°52' E 023°32'0 0.0
2016-Aug-15 23:32N 37°52' E 023°32'0 0.0
2016-Aug-15 22:32N 37°52' E 023°32'  

Dump ship's entire track history